sensor_id;sensor_type;location;lat;lon;timestamp;pressure;altitude;pressure_sealevel;temperature;humidity
10638;BME280;47007;49.252;8.904;2023-02-12T00:00:55;101803.31;;;5.91;100.00
10638;BME280;47007;49.252;8.904;2023-02-12T00:01:37;101810.75;;;5.97;100.00
10638;BME280;47007;49.252;8.904;2023-02-12T00:02:31;101815.19;;;5.97;100.00
10638;BME280;47007;49.252;8.904;2023-02-12T00:03:24;101817.72;;;5.98;100.00
10638;BME280;47007;49.252;8.904;2023-02-12T00:04:18;101813.19;;;6.00;100.00
10638;BME280;47007;49.252;8.904;2023-02-12T00:05:05;101796.53;;;5.87;100.00
10638;BME280;47007;49.252;8.904;2023-02-12T00:05:49;101815.72;;;6.02;100.00
10638;BME280;47007;49.252;8.904;2023-02-12T00:06:31;101813.09;;;6.02;100.00
10638;BME280;47007;49.252;8.904;2023-02-12T00:07:12;101813.00;;;6.03;100.00
10638;BME280;47007;49.252;8.904;2023-02-12T00:07:57;101800.22;;;5.97;100.00
10638;BME280;47007;49.252;8.904;2023-02-12T00:08:47;101814.44;;;6.07;100.00
10638;BME280;47007;49.252;8.904;2023-02-12T00:09:32;101805.84;;;6.05;100.00
10638;BME280;47007;49.252;8.904;2023-02-12T00:10:14;101815.28;;;6.08;100.00
10638;BME280;47007;49.252;8.904;2023-02-12T00:11:12;101818.03;;;6.06;100.00
10638;BME280;47007;49.252;8.904;2023-02-12T00:12:05;101790.25;;;5.90;100.00
10638;BME280;47007;49.252;8.904;2023-02-12T00:12:54;101819.19;;;6.02;100.00
10638;BME280;47007;49.252;8.904;2023-02-12T00:13:47;101814.13;;;5.99;100.00
10638;BME280;47007;49.252;8.904;2023-02-12T00:14:31;101795.66;;;5.87;100.00
10638;BME280;47007;49.252;8.904;2023-02-12T00:15:14;101776.94;;;5.78;100.00
10638;BME280;47007;49.252;8.904;2023-02-12T00:16:05;101790.41;;;5.87;100.00
10638;BME280;47007;49.252;8.904;2023-02-12T00:16:50;101799.81;;;5.91;100.00
10638;BME280;47007;49.252;8.904;2023-02-12T00:17:32;101822.34;;;6.07;100.00
10638;BME280;47007;49.252;8.904;2023-02-12T00:18:16;101798.44;;;5.98;100.00
10638;BME280;47007;49.252;8.904;2023-02-12T00:19:01;101802.66;;;6.00;100.00
10638;BME280;47007;49.252;8.904;2023-02-12T00:19:50;101817.63;;;6.12;100.00
10638;BME280;47007;49.252;8.904;2023-02-12T00:20:41;101790.44;;;5.99;100.00
10638;BME280;47007;49.252;8.904;2023-02-12T00:21:27;101776.97;;;5.91;100.00
10638;BME280;47007;49.252;8.904;2023-02-12T00:22:12;101804.75;;;6.08;100.00
10638;BME280;47007;49.252;8.904;2023-02-12T00:23:06;101808.78;;;6.13;100.00
10638;BME280;47007;49.252;8.904;2023-02-12T00:23:52;101811.09;;;6.18;100.00
10638;BME280;47007;49.252;8.904;2023-02-12T00:24:38;101806.13;;;6.13;100.00
10638;BME280;47007;49.252;8.904;2023-02-12T00:25:21;101803.59;;;6.12;100.00
10638;BME280;47007;49.252;8.904;2023-02-12T00:26:08;101816.38;;;6.18;100.00
10638;BME280;47007;49.252;8.904;2023-02-12T00:26:54;101815.53;;;6.18;100.00
10638;BME280;47007;49.252;8.904;2023-02-12T00:27:36;101809.19;;;6.07;100.00
10638;BME280;47007;49.252;8.904;2023-02-12T00:28:22;101808.34;;;6.07;100.00
10638;BME280;47007;49.252;8.904;2023-02-12T00:29:09;101821.09;;;6.13;100.00
10638;BME280;47007;49.252;8.904;2023-02-12T00:30:00;101785.81;;;5.90;100.00
10638;BME280;47007;49.252;8.904;2023-02-12T00:30:47;101826.75;;;6.07;100.00
10638;BME280;47007;49.252;8.904;2023-02-12T00:31:32;101819.09;;;6.04;100.00
10638;BME280;47007;49.252;8.904;2023-02-12T00:32:19;101797.47;;;5.86;100.00
10638;BME280;47007;49.252;8.904;2023-02-12T00:33:12;101819.94;;;6.04;100.00
10638;BME280;47007;49.252;8.904;2023-02-12T00:33:59;101802.75;;;5.99;100.00
10638;BME280;47007;49.252;8.904;2023-02-12T00:34:42;101808.88;;;5.99;100.00
10638;BME280;47007;49.252;8.904;2023-02-12T00:35:34;101805.19;;;6.02;100.00
10638;BME280;47007;49.252;8.904;2023-02-12T00:36:39;101817.50;;;6.14;100.00
10638;BME280;47007;49.252;8.904;2023-02-12T00:37:23;101817.41;;;6.16;100.00
10638;BME280;47007;49.252;8.904;2023-02-12T00:38:12;101806.88;;;6.16;100.00
10638;BME280;47007;49.252;8.904;2023-02-12T00:39:20;101818.56;;;6.24;100.00
10638;BME280;47007;49.252;8.904;2023-02-12T00:40:04;101813.19;;;6.26;100.00
10638;BME280;47007;49.252;8.904;2023-02-12T00:40:46;101793.06;;;6.12;100.00
10638;BME280;47007;49.252;8.904;2023-02-12T00:41:37;101782.25;;;6.04;100.00
10638;BME280;47007;49.252;8.904;2023-02-12T00:42:27;101807.63;;;6.18;100.00
10638;BME280;47007;49.252;8.904;2023-02-12T00:43:11;101812.34;;;6.12;100.00
10638;BME280;47007;49.252;8.904;2023-02-12T00:43:55;101810.03;;;6.08;100.00
10638;BME280;47007;49.252;8.904;2023-02-12T00:44:44;101807.19;;;5.98;100.00
10638;BME280;47007;49.252;8.904;2023-02-12T00:45:26;101790.63;;;5.84;100.00
10638;BME280;47007;49.252;8.904;2023-02-12T00:46:19;101795.47;;;5.77;100.00
10638;BME280;47007;49.252;8.904;2023-02-12T00:47:08;101816.94;;;5.84;100.00
10638;BME280;47007;49.252;8.904;2023-02-12T00:47:52;101807.97;;;5.73;100.00
10638;BME280;47007;49.252;8.904;2023-02-12T00:48:37;101805.66;;;5.69;100.00
10638;BME280;47007;49.252;8.904;2023-02-12T00:49:22;101818.94;;;5.80;100.00
10638;BME280;47007;49.252;8.904;2023-02-12T00:50:17;101808.63;;;5.77;100.00
10638;BME280;47007;49.252;8.904;2023-02-12T00:51:01;101821.72;;;5.91;100.00
10638;BME280;47007;49.252;8.904;2023-02-12T00:51:46;101825.91;;;5.94;100.00
10638;BME280;47007;49.252;8.904;2023-02-12T00:52:33;101831.91;;;5.96;100.00
10638;BME280;47007;49.252;8.904;2023-02-12T00:53:21;101820.78;;;5.92;100.00
10638;BME280;47007;49.252;8.904;2023-02-12T00:54:12;101826.34;;;6.00;100.00
10638;BME280;47007;49.252;8.904;2023-02-12T00:55:02;101829.63;;;6.04;100.00
10638;BME280;47007;49.252;8.904;2023-02-12T00:55:47;101774.72;;;5.72;100.00
10638;BME280;47007;49.252;8.904;2023-02-12T00:56:37;101828.44;;;6.08;100.00
10638;BME280;47007;49.252;8.904;2023-02-12T00:57:26;101824.88;;;6.09;100.00
10638;BME280;47007;49.252;8.904;2023-02-12T00:58:15;101816.97;;;6.09;100.00
10638;BME280;47007;49.252;8.904;2023-02-12T00:59:05;101834.03;;;6.16;100.00
10638;BME280;47007;49.252;8.904;2023-02-12T00:59:54;101827.69;;;6.19;100.00
10638;BME280;47007;49.252;8.904;2023-02-12T01:00:42;101837.28;;;6.20;100.00
10638;BME280;47007;49.252;8.904;2023-02-12T01:01:31;101817.91;;;6.08;100.00
10638;BME280;47007;49.252;8.904;2023-02-12T01:02:16;101809.50;;;6.03;100.00
10638;BME280;47007;49.252;8.904;2023-02-12T01:03:03;101836.69;;;6.16;100.00
10638;BME280;47007;49.252;8.904;2023-02-12T01:03:59;101834.34;;;6.11;100.00
10638;BME280;47007;49.252;8.904;2023-02-12T01:04:48;101816.78;;;5.99;100.00
10638;BME280;47007;49.252;8.904;2023-02-12T01:05:32;101814.69;;;6.04;100.00
10638;BME280;47007;49.252;8.904;2023-02-12T01:06:26;101819.00;;;6.05;100.00
10638;BME280;47007;49.252;8.904;2023-02-12T01:07:22;101814.44;;;6.07;100.00
10638;BME280;47007;49.252;8.904;2023-02-12T01:08:13;101823.63;;;6.15;100.00
10638;BME280;47007;49.252;8.904;2023-02-12T01:08:55;101828.69;;;6.18;100.00
10638;BME280;47007;49.252;8.904;2023-02-12T01:09:43;101808.97;;;6.10;100.00
10638;BME280;47007;49.252;8.904;2023-02-12T01:10:32;101791.38;;;5.98;100.00
10638;BME280;47007;49.252;8.904;2023-02-12T01:11:28;101807.50;;;6.06;100.00
10638;BME280;47007;49.252;8.904;2023-02-12T01:12:14;101831.41;;;6.16;100.00
10638;BME280;47007;49.252;8.904;2023-02-12T01:12:58;101812.75;;;6.06;100.00
10638;BME280;47007;49.252;8.904;2023-02-12T01:13:41;101820.34;;;5.98;100.00
10638;BME280;47007;49.252;8.904;2023-02-12T01:14:23;101827.84;;;6.04;100.00
10638;BME280;47007;49.252;8.904;2023-02-12T01:15:25;101831.72;;;5.99;100.00
10638;BME280;47007;49.252;8.904;2023-02-12T01:16:23;101824.13;;;5.94;100.00
10638;BME280;47007;49.252;8.904;2023-02-12T01:17:07;101831.31;;;5.92;100.00
10638;BME280;47007;49.252;8.904;2023-02-12T01:18:03;101835.63;;;5.93;100.00
10638;BME280;47007;49.252;8.904;2023-02-12T01:18:48;101832.00;;;5.94;100.00
10638;BME280;47007;49.252;8.904;2023-02-12T01:19:38;101832.75;;;5.96;100.00
10638;BME280;47007;49.252;8.904;2023-02-12T01:20:24;101823.06;;;5.97;100.00
10638;BME280;47007;49.252;8.904;2023-02-12T01:21:26;101824.25;;;5.93;100.00
10638;BME280;47007;49.252;8.904;2023-02-12T01:22:13;101805.34;;;5.73;100.00
10638;BME280;47007;49.252;8.904;2023-02-12T01:22:56;101823.38;;;5.80;100.00
10638;BME280;47007;49.252;8.904;2023-02-12T01:23:47;101830.81;;;5.73;100.00
10638;BME280;47007;49.252;8.904;2023-02-12T01:24:39;101825.13;;;5.66;100.00
10638;BME280;47007;49.252;8.904;2023-02-12T01:25:37;101825.63;;;5.59;100.00
10638;BME280;47007;49.252;8.904;2023-02-12T01:26:20;101829.94;;;5.60;100.00
10638;BME280;47007;49.252;8.904;2023-02-12T01:27:05;101799.38;;;5.45;100.00
10638;BME280;47007;49.252;8.904;2023-02-12T01:27:54;101818.91;;;5.55;100.00
10638;BME280;47007;49.252;8.904;2023-02-12T01:28:54;101832.69;;;5.71;100.00
10638;BME280;47007;49.252;8.904;2023-02-12T01:29:36;101821.31;;;5.70;100.00
10638;BME280;47007;49.252;8.904;2023-02-12T01:30:22;101834.59;;;5.82;100.00
10638;BME280;47007;49.252;8.904;2023-02-12T01:31:13;101836.94;;;5.86;100.00
10638;BME280;47007;49.252;8.904;2023-02-12T01:32:13;101841.09;;;5.90;100.00
10638;BME280;47007;49.252;8.904;2023-02-12T01:32:59;101829.50;;;5.93;100.00
10638;BME280;47007;49.252;8.904;2023-02-12T01:33:41;101828.53;;;5.94;100.00
10638;BME280;47007;49.252;8.904;2023-02-12T01:34:24;101827.72;;;5.93;100.00
10638;BME280;47007;49.252;8.904;2023-02-12T01:35:11;101830.47;;;6.04;100.00
10638;BME280;47007;49.252;8.904;2023-02-12T01:35:55;101833.72;;;6.08;100.00
10638;BME280;47007;49.252;8.904;2023-02-12T01:36:49;101831.72;;;6.11;100.00
10638;BME280;47007;49.252;8.904;2023-02-12T01:37:52;101832.56;;;6.12;100.00
10638;BME280;47007;49.252;8.904;2023-02-12T01:38:37;101821.63;;;6.05;100.00
10638;BME280;47007;49.252;8.904;2023-02-12T01:39:22;101829.53;;;6.05;100.00
10638;BME280;47007;49.252;8.904;2023-02-12T01:40:06;101828.97;;;6.00;100.00
10638;BME280;47007;49.252;8.904;2023-02-12T01:40:49;101832.00;;;5.94;100.00
10638;BME280;47007;49.252;8.904;2023-02-12T01:41:39;101833.19;;;5.90;100.00
10638;BME280;47007;49.252;8.904;2023-02-12T01:42:26;101829.03;;;5.86;100.00
10638;BME280;47007;49.252;8.904;2023-02-12T01:43:17;101828.41;;;5.83;100.00
10638;BME280;47007;49.252;8.904;2023-02-12T01:46:06;101821.25;;;5.85;100.00
10638;BME280;47007;49.252;8.904;2023-02-12T01:47:00;101801.97;;;5.71;100.00
10638;BME280;47007;49.252;8.904;2023-02-12T01:47:50;101814.63;;;5.79;100.00
10638;BME280;47007;49.252;8.904;2023-02-12T01:48:47;101805.16;;;5.76;100.00
10638;BME280;47007;49.252;8.904;2023-02-12T01:49:40;101823.38;;;5.80;100.00
10638;BME280;47007;49.252;8.904;2023-02-12T01:50:31;101786.41;;;5.56;100.00
10638;BME280;47007;49.252;8.904;2023-02-12T01:51:24;101806.72;;;5.66;100.00
10638;BME280;47007;49.252;8.904;2023-02-12T01:52:19;101817.00;;;5.69;100.00
10638;BME280;47007;49.252;8.904;2023-02-12T01:53:07;101808.81;;;5.61;100.00
10638;BME280;47007;49.252;8.904;2023-02-12T01:54:02;101816.06;;;5.70;100.00
10638;BME280;47007;49.252;8.904;2023-02-12T01:54:51;101825.56;;;5.73;100.00
10638;BME280;47007;49.252;8.904;2023-02-12T01:55:38;101814.63;;;5.79;100.00
10638;BME280;47007;49.252;8.904;2023-02-12T01:56:31;101814.19;;;5.85;100.00
10638;BME280;47007;49.252;8.904;2023-02-12T01:57:21;101817.41;;;5.90;100.00
10638;BME280;47007;49.252;8.904;2023-02-12T01:58:10;101778.84;;;5.76;100.00
10638;BME280;47007;49.252;8.904;2023-02-12T01:58:53;101790.41;;;5.87;100.00
10638;BME280;47007;49.252;8.904;2023-02-12T01:59:55;101785.25;;;5.85;100.00
10638;BME280;47007;49.252;8.904;2023-02-12T02:00:47;101815.38;;;6.06;100.00
10638;BME280;47007;49.252;8.904;2023-02-12T02:01:31;101808.34;;;6.07;100.00
10638;BME280;47007;49.252;8.904;2023-02-12T02:02:23;101798.53;;;5.96;100.00
10638;BME280;47007;49.252;8.904;2023-02-12T02:03:05;101812.44;;;6.11;100.00
10638;BME280;47007;49.252;8.904;2023-02-12T02:03:51;101814.88;;;6.14;100.00
10638;BME280;47007;49.252;8.904;2023-02-12T02:04:46;101817.31;;;6.17;100.00
10638;BME280;47007;49.252;8.904;2023-02-12T02:05:53;101817.91;;;6.21;100.00
10638;BME280;47007;49.252;8.904;2023-02-12T02:06:49;101813.38;;;6.23;100.00
10638;BME280;47007;49.252;8.904;2023-02-12T02:07:39;101796.34;;;6.16;100.00
10638;BME280;47007;49.252;8.904;2023-02-12T02:08:29;101807.91;;;6.26;100.00
10638;BME280;47007;49.252;8.904;2023-02-12T02:09:11;101813.94;;;6.28;100.00
10638;BME280;47007;49.252;8.904;2023-02-12T02:09:57;101801.59;;;6.28;100.00
10638;BME280;47007;49.252;8.904;2023-02-12T02:10:42;101811.28;;;6.28;100.00
10638;BME280;47007;49.252;8.904;2023-02-12T02:11:31;101803.50;;;6.26;100.00
10638;BME280;47007;49.252;8.904;2023-02-12T02:12:43;101804.97;;;6.30;100.00
10638;BME280;47007;49.252;8.904;2023-02-12T02:13:45;101804.13;;;6.30;100.00
10638;BME280;47007;49.252;8.904;2023-02-12T02:15:13;101807.91;;;6.26;100.00
10638;BME280;47007;49.252;8.904;2023-02-12T02:16:04;101806.44;;;6.22;100.00
10638;BME280;47007;49.252;8.904;2023-02-12T02:18:15;101785.94;;;6.01;100.00
10638;BME280;47007;49.252;8.904;2023-02-12T02:22:13;101810.56;;;6.13;100.00
10638;BME280;47007;49.252;8.904;2023-02-12T02:31:51;101812.16;;;6.16;100.00
10638;BME280;47007;49.252;8.904;2023-02-12T02:36:50;101789.03;;;5.81;100.00
10638;BME280;47007;49.252;8.904;2023-02-12T02:37:50;101799.25;;;5.86;100.00
10638;BME280;47007;49.252;8.904;2023-02-12T02:39:02;101798.13;;;5.90;100.00
10638;BME280;47007;49.252;8.904;2023-02-12T02:39:57;101814.13;;;5.99;100.00
10638;BME280;47007;49.252;8.904;2023-02-12T02:41:27;101808.66;;;6.02;100.00
10638;BME280;47007;49.252;8.904;2023-02-12T02:42:34;101809.41;;;6.04;100.00
10638;BME280;47007;49.252;8.904;2023-02-12T02:43:28;101768.63;;;5.85;100.00
10638;BME280;47007;49.252;8.904;2023-02-12T02:44:41;101805.28;;;6.00;100.00
10638;BME280;47007;49.252;8.904;2023-02-12T02:45:33;101812.66;;;6.08;100.00
10638;BME280;47007;49.252;8.904;2023-02-12T02:46:47;101791.09;;;6.03;100.00
10638;BME280;47007;49.252;8.904;2023-02-12T02:47:33;101793.81;;;6.01;100.00
10638;BME280;47007;49.252;8.904;2023-02-12T02:48:34;101793.81;;;6.01;100.00
10638;BME280;47007;49.252;8.904;2023-02-12T02:49:34;101807.38;;;6.08;100.00
10638;BME280;47007;49.252;8.904;2023-02-12T02:50:25;101808.34;;;6.07;100.00
10638;BME280;47007;49.252;8.904;2023-02-12T02:51:15;101771.44;;;5.82;100.00
10638;BME280;47007;49.252;8.904;2023-02-12T02:52:04;101811.50;;;5.99;100.00
10638;BME280;47007;49.252;8.904;2023-02-12T02:54:57;101807.25;;;5.84;100.00
10638;BME280;47007;49.252;8.904;2023-02-12T02:55:54;101808.28;;;5.82;100.00
10638;BME280;47007;49.252;8.904;2023-02-12T02:56:45;101809.25;;;5.81;100.00
10638;BME280;47007;49.252;8.904;2023-02-12T02:57:41;101796.50;;;5.74;100.00
10638;BME280;47007;49.252;8.904;2023-02-12T02:59:08;101811.66;;;5.84;100.00
10638;BME280;47007;49.252;8.904;2023-02-12T02:59:46;101776.00;;;5.67;100.00
10638;BME280;47007;49.252;8.904;2023-02-12T03:00:52;101810.53;;;5.88;100.00
10638;BME280;47007;49.252;8.904;2023-02-12T03:01:46;101768.81;;;5.69;100.00
10638;BME280;47007;49.252;8.904;2023-02-12T03:02:48;101805.09;;;5.91;100.00
10638;BME280;47007;49.252;8.904;2023-02-12T03:04:06;101811.09;;;5.93;100.00
10638;BME280;47007;49.252;8.904;2023-02-12T03:05:21;101814.34;;;5.96;100.00
10638;BME280;47007;49.252;8.904;2023-02-12T03:06:12;101814.25;;;5.98;100.00
10638;BME280;47007;49.252;8.904;2023-02-12T03:07:30;101801.41;;;5.93;100.00
10638;BME280;47007;49.252;8.904;2023-02-12T03:08:18;101815.91;;;5.99;100.00
10638;BME280;47007;49.252;8.904;2023-02-12T03:09:37;101813.19;;;6.00;100.00
10638;BME280;47007;49.252;8.904;2023-02-12T03:10:30;101809.06;;;5.96;100.00
10638;BME280;47007;49.252;8.904;2023-02-12T03:11:23;101814.78;;;6.03;100.00
10638;BME280;47007;49.252;8.904;2023-02-12T03:12:16;101812.16;;;6.03;100.00
10638;BME280;47007;49.252;8.904;2023-02-12T03:13:11;101813.00;;;6.03;100.00
10638;BME280;47007;49.252;8.904;2023-02-12T03:14:54;101814.69;;;6.04;100.00
10638;BME280;47007;49.252;8.904;2023-02-12T03:16:15;101798.53;;;5.96;100.00
10638;BME280;47007;49.252;8.904;2023-02-12T03:17:05;101818.88;;;6.07;100.00
10638;BME280;47007;49.252;8.904;2023-02-12T03:17:49;101816.22;;;6.07;100.00
10638;BME280;47007;49.252;8.904;2023-02-12T03:18:58;101817.06;;;6.07;100.00
10638;BME280;47007;49.252;8.904;2023-02-12T03:19:54;101813.50;;;6.08;100.00
10638;BME280;47007;49.252;8.904;2023-02-12T03:20:45;101816.13;;;6.08;100.00
10638;BME280;47007;49.252;8.904;2023-02-12T03:21:42;101798.13;;;6.02;100.00
10638;BME280;47007;49.252;8.904;2023-02-12T03:22:32;101810.97;;;6.07;100.00
10638;BME280;47007;49.252;8.904;2023-02-12T03:23:28;101816.13;;;6.08;100.00
10638;BME280;47007;49.252;8.904;2023-02-12T03:24:25;101813.59;;;6.07;100.00
10638;BME280;47007;49.252;8.904;2023-02-12T03:25:22;101802.03;;;5.97;100.00
10638;BME280;47007;49.252;8.904;2023-02-12T03:26:18;101810.13;;;6.06;100.00
10638;BME280;47007;49.252;8.904;2023-02-12T03:27:12;101802.22;;;6.06;100.00
10638;BME280;47007;49.252;8.904;2023-02-12T03:28:08;101803.50;;;6.01;100.00
10638;BME280;47007;49.252;8.904;2023-02-12T03:29:00;101787.28;;;5.94;100.00
10638;BME280;47007;49.252;8.904;2023-02-12T03:29:48;101806.66;;;6.06;100.00
10638;BME280;47007;49.252;8.904;2023-02-12T03:33:34;101810.47;;;6.15;100.00
10638;BME280;47007;49.252;8.904;2023-02-12T03:34:39;101817.41;;;6.16;100.00
10638;BME280;47007;49.252;8.904;2023-02-12T03:35:39;101811.59;;;6.10;100.00
10638;BME280;47007;49.252;8.904;2023-02-12T03:38:42;101812.66;;;6.21;100.00
10638;BME280;47007;49.252;8.904;2023-02-12T03:39:31;101811.69;;;6.22;100.00
10638;BME280;47007;49.252;8.904;2023-02-12T03:40:20;101808.22;;;6.21;100.00
10638;BME280;47007;49.252;8.904;2023-02-12T03:41:14;101807.47;;;6.19;100.00
10638;BME280;47007;49.252;8.904;2023-02-12T03:42:05;101811.91;;;6.19;100.00
10638;BME280;47007;49.252;8.904;2023-02-12T03:43:52;101806.88;;;6.16;100.00
10638;BME280;47007;49.252;8.904;2023-02-12T03:44:58;101802.97;;;6.08;100.00
10638;BME280;47007;49.252;8.904;2023-02-12T03:47:03;101802.47;;;6.16;100.00
10638;BME280;47007;49.252;8.904;2023-02-12T03:48:08;101801.38;;;6.19;100.00
10638;BME280;47007;49.252;8.904;2023-02-12T03:50:59;101809.72;;;6.12;100.00
10638;BME280;47007;49.252;8.904;2023-02-12T03:51:44;101799.59;;;6.06;100.00
10638;BME280;47007;49.252;8.904;2023-02-12T03:52:29;101793.06;;;5.99;100.00
10638;BME280;47007;49.252;8.904;2023-02-12T03:53:11;101806.78;;;6.04;100.00
10638;BME280;47007;49.252;8.904;2023-02-12T03:54:02;101808.47;;;6.05;100.00
10638;BME280;47007;49.252;8.904;2023-02-12T03:54:45;101806.66;;;6.06;100.00
10638;BME280;47007;49.252;8.904;2023-02-12T03:55:39;101816.13;;;6.08;100.00
10638;BME280;47007;49.252;8.904;2023-02-12T03:57:51;101788.56;;;6.01;100.00
10638;BME280;47007;49.252;8.904;2023-02-12T03:58:35;101818.34;;;6.15;100.00
10638;BME280;47007;49.252;8.904;2023-02-12T03:59:24;101813.84;;;6.17;100.00
10638;BME280;47007;49.252;8.904;2023-02-12T04:00:12;101817.50;;;6.14;100.00
10638;BME280;47007;49.252;8.904;2023-02-12T04:01:05;101808.97;;;6.10;100.00
10638;BME280;47007;49.252;8.904;2023-02-12T04:01:47;101814.69;;;6.04;100.00
10638;BME280;47007;49.252;8.904;2023-02-12T04:02:33;101806.53;;;5.95;100.00
10638;BME280;47007;49.252;8.904;2023-02-12T04:03:24;101794.00;;;5.86;100.00
10638;BME280;47007;49.252;8.904;2023-02-12T04:04:07;101811.41;;;5.88;100.00
10638;BME280;47007;49.252;8.904;2023-02-12T04:04:54;101804.09;;;5.79;100.00
10638;BME280;47007;49.252;8.904;2023-02-12T04:05:41;101812.72;;;5.81;100.00
10638;BME280;47007;49.252;8.904;2023-02-12T04:06:26;101812.72;;;5.81;100.00
10638;BME280;47007;49.252;8.904;2023-02-12T04:07:14;101816.09;;;5.83;100.00
10638;BME280;47007;49.252;8.904;2023-02-12T04:08:08;101778.72;;;5.65;100.00
10638;BME280;47007;49.252;8.904;2023-02-12T04:08:54;101813.25;;;5.86;100.00
10638;BME280;47007;49.252;8.904;2023-02-12T04:09:40;101812.50;;;5.84;100.00
10638;BME280;47007;49.252;8.904;2023-02-12T04:10:41;101808.94;;;5.85;100.00
10638;BME280;47007;49.252;8.904;2023-02-12T04:12:39;101815.50;;;5.92;100.00
10638;BME280;47007;49.252;8.904;2023-02-12T04:16:54;101820.03;;;6.03;100.00
10638;BME280;47007;49.252;8.904;2023-02-12T04:18:44;101818.03;;;6.06;100.00
10638;BME280;47007;49.252;8.904;2023-02-12T04:20:40;101817.06;;;6.07;100.00
10638;BME280;47007;49.252;8.904;2023-02-12T04:26:23;101827.31;;;6.12;100.00
10638;BME280;47007;49.252;8.904;2023-02-12T04:27:30;101827.19;;;6.13;100.00
10638;BME280;47007;49.252;8.904;2023-02-12T04:28:33;101829.84;;;6.13;100.00
10638;BME280;47007;49.252;8.904;2023-02-12T04:30:31;101816.47;;;6.04;100.00
10638;BME280;47007;49.252;8.904;2023-02-12T04:33:43;101815.09;;;5.98;100.00
10638;BME280;47007;49.252;8.904;2023-02-12T04:34:38;101818.16;;;5.92;100.00
10638;BME280;47007;49.252;8.904;2023-02-12T04:35:30;101829.72;;;6.02;100.00
10638;BME280;47007;49.252;8.904;2023-02-12T04:36:21;101825.59;;;5.98;100.00
10638;BME280;47007;49.252;8.904;2023-02-12T04:39:04;101823.78;;;5.86;100.00
10638;BME280;47007;49.252;8.904;2023-02-12T04:39:48;101839.91;;;5.94;100.00
10638;BME280;47007;49.252;8.904;2023-02-12T04:40:36;101840.34;;;5.88;100.00
10638;BME280;47007;49.252;8.904;2023-02-12T04:41:24;101837.78;;;5.87;100.00
10638;BME280;47007;49.252;8.904;2023-02-12T04:42:09;101839.66;;;5.85;100.00
10638;BME280;47007;49.252;8.904;2023-02-12T04:43:09;101843.97;;;5.86;100.00
10638;BME280;47007;49.252;8.904;2023-02-12T04:43:53;101842.19;;;5.86;100.00
10638;BME280;47007;49.252;8.904;2023-02-12T04:44:42;101841.25;;;5.87;100.00
10638;BME280;47007;49.252;8.904;2023-02-12T04:45:30;101840.34;;;5.88;100.00
10638;BME280;47007;49.252;8.904;2023-02-12T04:46:21;101842.03;;;5.89;100.00
10638;BME280;47007;49.252;8.904;2023-02-12T04:47:10;101815.13;;;5.71;100.00
10638;BME280;47007;49.252;8.904;2023-02-12T04:48:11;101843.63;;;5.92;100.00
10638;BME280;47007;49.252;8.904;2023-02-12T04:49:05;101830.19;;;5.82;100.00
10638;BME280;47007;49.252;8.904;2023-02-12T04:49:52;101831.88;;;5.83;100.00
10638;BME280;47007;49.252;8.904;2023-02-12T04:50:41;101837.88;;;5.85;100.00
10638;BME280;47007;49.252;8.904;2023-02-12T04:51:24;101837.78;;;5.87;100.00
10638;BME280;47007;49.252;8.904;2023-02-12T04:52:11;101816.91;;;5.71;100.00
10638;BME280;47007;49.252;8.904;2023-02-12T04:52:53;101834.00;;;5.78;100.00
10638;BME280;47007;49.252;8.904;2023-02-12T04:53:34;101837.97;;;5.84;100.00
10638;BME280;47007;49.252;8.904;2023-02-12T04:54:20;101837.88;;;5.85;100.00
10638;BME280;47007;49.252;8.904;2023-02-12T04:55:06;101829.66;;;5.77;100.00
10638;BME280;47007;49.252;8.904;2023-02-12T04:55:50;101831.03;;;5.83;100.00
10638;BME280;47007;49.252;8.904;2023-02-12T04:56:33;101833.75;;;5.81;100.00
10638;BME280;47007;49.252;8.904;2023-02-12T04:57:15;101837.47;;;5.78;100.00
10638;BME280;47007;49.252;8.904;2023-02-12T04:57:57;101823.75;;;5.73;100.00
10638;BME280;47007;49.252;8.904;2023-02-12T04:58:41;101817.13;;;5.68;100.00
10638;BME280;47007;49.252;8.904;2023-02-12T04:59:23;101831.13;;;5.81;100.00
10638;BME280;47007;49.252;8.904;2023-02-12T05:00:13;101830.19;;;5.82;100.00
10638;BME280;47007;49.252;8.904;2023-02-12T05:00:58;101810.19;;;5.67;100.00
10638;BME280;47007;49.252;8.904;2023-02-12T05:01:45;101811.66;;;5.71;100.00
10638;BME280;47007;49.252;8.904;2023-02-12T05:02:28;101820.28;;;5.73;100.00
10638;BME280;47007;49.252;8.904;2023-02-12T05:03:10;101813.88;;;5.77;100.00
10638;BME280;47007;49.252;8.904;2023-02-12T05:04:00;101826.41;;;5.86;100.00
10638;BME280;47007;49.252;8.904;2023-02-12T05:04:54;101834.41;;;5.85;100.00
10638;BME280;47007;49.252;8.904;2023-02-12T05:06:57;101801.56;;;5.65;100.00
10638;BME280;47007;49.252;8.904;2023-02-12T05:07:38;101826.00;;;5.80;100.00
10638;BME280;47007;49.252;8.904;2023-02-12T05:08:23;101828.28;;;5.84;100.00
10638;BME280;47007;49.252;8.904;2023-02-12T05:09:22;101827.34;;;5.85;100.00
10638;BME280;47007;49.252;8.904;2023-02-12T05:10:07;101827.34;;;5.85;100.00
10638;BME280;47007;49.252;8.904;2023-02-12T05:10:49;101823.03;;;5.84;100.00
10638;BME280;47007;49.252;8.904;2023-02-12T05:11:36;101827.34;;;5.85;100.00
10638;BME280;47007;49.252;8.904;2023-02-12T05:12:40;101811.25;;;5.77;100.00
10638;BME280;47007;49.252;8.904;2023-02-12T05:13:31;101807.34;;;5.70;100.00
10638;BME280;47007;49.252;8.904;2023-02-12T05:14:15;101820.59;;;5.81;100.00
10638;BME280;47007;49.252;8.904;2023-02-12T05:15:10;101832.09;;;5.80;100.00
10638;BME280;47007;49.252;8.904;2023-02-12T05:16:20;101825.16;;;5.79;100.00
10638;BME280;47007;49.252;8.904;2023-02-12T05:17:22;101810.09;;;5.68;100.00
10638;BME280;47007;49.252;8.904;2023-02-12T05:18:04;101788.28;;;5.54;100.00